sensor_id;sensor_type;location;lat;lon;timestamp;P1;durP1;ratioP1;P2;durP2;ratioP2
5662;SDS011;2854;42.692;23.364;2022-09-19T00:01:36;2.00;;;1.87;;
5662;SDS011;2854;42.692;23.364;2022-09-19T00:04:03;2.03;;;1.93;;
5662;SDS011;2854;42.692;23.364;2022-09-19T00:06:30;2.10;;;1.93;;
5662;SDS011;2854;42.692;23.364;2022-09-19T00:08:55;5.90;;;2.50;;
5662;SDS011;2854;42.692;23.364;2022-09-19T00:11:21;2.37;;;2.27;;
5662;SDS011;2854;42.692;23.364;2022-09-19T00:13:47;3.13;;;2.83;;
5662;SDS011;2854;42.692;23.364;2022-09-19T00:16:17;2.20;;;2.10;;
5662;SDS011;2854;42.692;23.364;2022-09-19T00:18:43;3.20;;;2.10;;
5662;SDS011;2854;42.692;23.364;2022-09-19T00:21:09;2.60;;;2.30;;
5662;SDS011;2854;42.692;23.364;2022-09-19T00:23:34;2.90;;;2.20;;
5662;SDS011;2854;42.692;23.364;2022-09-19T00:26:18;3.30;;;2.40;;
5662;SDS011;2854;42.692;23.364;2022-09-19T00:28:45;3.10;;;2.87;;
5662;SDS011;2854;42.692;23.364;2022-09-19T00:31:13;3.57;;;2.73;;
5662;SDS011;2854;42.692;23.364;2022-09-19T00:33:41;3.67;;;3.40;;
5662;SDS011;2854;42.692;23.364;2022-09-19T00:36:07;3.17;;;2.87;;
5662;SDS011;2854;42.692;23.364;2022-09-19T00:38:32;3.50;;;2.90;;
5662;SDS011;2854;42.692;23.364;2022-09-19T00:40:58;3.70;;;3.40;;
5662;SDS011;2854;42.692;23.364;2022-09-19T00:43:24;5.17;;;3.33;;
5662;SDS011;2854;42.692;23.364;2022-09-19T00:46:06;4.70;;;2.53;;
5662;SDS011;2854;42.692;23.364;2022-09-19T00:48:31;2.57;;;2.03;;
5662;SDS011;2854;42.692;23.364;2022-09-19T00:50:58;5.73;;;2.50;;
5662;SDS011;2854;42.692;23.364;2022-09-19T00:53:23;2.07;;;1.97;;
5662;SDS011;2854;42.692;23.364;2022-09-19T00:55:51;3.63;;;2.80;;
5662;SDS011;2854;42.692;23.364;2022-09-19T01:00:56;2.70;;;2.13;;
5662;SDS011;2854;42.692;23.364;2022-09-19T01:03:22;2.67;;;2.47;;
5662;SDS011;2854;42.692;23.364;2022-09-19T01:11:18;2.67;;;2.57;;
5662;SDS011;2854;42.692;23.364;2022-09-19T01:17:11;2.90;;;2.70;;
5662;SDS011;2854;42.692;23.364;2022-09-19T01:22:41;2.43;;;2.23;;
5662;SDS011;2854;42.692;23.364;2022-09-19T01:27:33;2.90;;;2.70;;
5662;SDS011;2854;42.692;23.364;2022-09-19T01:30:07;3.10;;;2.90;;
5662;SDS011;2854;42.692;23.364;2022-09-19T01:35:35;2.20;;;2.10;;
5662;SDS011;2854;42.692;23.364;2022-09-19T01:38:07;2.63;;;2.43;;
5662;SDS011;2854;42.692;23.364;2022-09-19T01:40:34;2.80;;;2.30;;
5662;SDS011;2854;42.692;23.364;2022-09-19T01:43:01;4.50;;;2.27;;
5662;SDS011;2854;42.692;23.364;2022-09-19T01:45:33;2.50;;;2.30;;
5662;SDS011;2854;42.692;23.364;2022-09-19T01:53:36;3.07;;;2.80;;
5662;SDS011;2854;42.692;23.364;2022-09-19T01:58:16;2.37;;;2.27;;
5662;SDS011;2854;42.692;23.364;2022-09-19T02:00:47;2.63;;;2.40;;
5662;SDS011;2854;42.692;23.364;2022-09-19T02:05:54;2.40;;;2.30;;
5662;SDS011;2854;42.692;23.364;2022-09-19T02:11:00;2.57;;;2.37;;
5662;SDS011;2854;42.692;23.364;2022-09-19T02:13:28;3.67;;;3.33;;
5662;SDS011;2854;42.692;23.364;2022-09-19T02:15:57;5.43;;;3.10;;
5662;SDS011;2854;42.692;23.364;2022-09-19T02:18:26;2.67;;;2.47;;
5662;SDS011;2854;42.692;23.364;2022-09-19T02:20:55;2.57;;;2.40;;
5662;SDS011;2854;42.692;23.364;2022-09-19T02:23:24;2.53;;;2.33;;
5662;SDS011;2854;42.692;23.364;2022-09-19T02:25:51;3.10;;;2.90;;
5662;SDS011;2854;42.692;23.364;2022-09-19T02:28:19;6.30;;;3.27;;
5662;SDS011;2854;42.692;23.364;2022-09-19T02:30:47;2.83;;;2.67;;
5662;SDS011;2854;42.692;23.364;2022-09-19T02:33:13;2.80;;;2.60;;
5662;SDS011;2854;42.692;23.364;2022-09-19T02:38:25;2.10;;;2.00;;
5662;SDS011;2854;42.692;23.364;2022-09-19T02:43:25;3.50;;;1.90;;
5662;SDS011;2854;42.692;23.364;2022-09-19T02:45:53;1.97;;;1.87;;
5662;SDS011;2854;42.692;23.364;2022-09-19T02:48:30;2.90;;;2.70;;
5662;SDS011;2854;42.692;23.364;2022-09-19T02:53:24;2.47;;;2.27;;
5662;SDS011;2854;42.692;23.364;2022-09-19T02:55:52;2.43;;;2.33;;
5662;SDS011;2854;42.692;23.364;2022-09-19T02:58:21;3.63;;;2.87;;
5662;SDS011;2854;42.692;23.364;2022-09-19T03:00:48;4.23;;;2.50;;
5662;SDS011;2854;42.692;23.364;2022-09-19T03:03:17;3.33;;;3.13;;
5662;SDS011;2854;42.692;23.364;2022-09-19T03:06:03;2.23;;;2.03;;
5662;SDS011;2854;42.692;23.364;2022-09-19T03:08:30;2.40;;;2.30;;
5662;SDS011;2854;42.692;23.364;2022-09-19T03:11:01;2.50;;;2.00;;
5662;SDS011;2854;42.692;23.364;2022-09-19T03:13:32;2.17;;;2.07;;
5662;SDS011;2854;42.692;23.364;2022-09-19T03:16:21;2.50;;;2.30;;
5662;SDS011;2854;42.692;23.364;2022-09-19T03:18:44;2.60;;;2.40;;
5662;SDS011;2854;42.692;23.364;2022-09-19T03:21:14;2.10;;;1.90;;
5662;SDS011;2854;42.692;23.364;2022-09-19T03:23:44;2.50;;;2.40;;
5662;SDS011;2854;42.692;23.364;2022-09-19T03:26:11;2.80;;;2.60;;
5662;SDS011;2854;42.692;23.364;2022-09-19T03:28:37;2.57;;;2.43;;
5662;SDS011;2854;42.692;23.364;2022-09-19T03:31:03;2.20;;;2.10;;
5662;SDS011;2854;42.692;23.364;2022-09-19T03:33:28;2.20;;;2.10;;
5662;SDS011;2854;42.692;23.364;2022-09-19T03:35:53;2.10;;;2.00;;
5662;SDS011;2854;42.692;23.364;2022-09-19T03:38:22;2.53;;;2.43;;
5662;SDS011;2854;42.692;23.364;2022-09-19T03:40:47;2.57;;;2.27;;
5662;SDS011;2854;42.692;23.364;2022-09-19T03:43:13;2.50;;;2.30;;
5662;SDS011;2854;42.692;23.364;2022-09-19T03:45:38;2.73;;;2.53;;
5662;SDS011;2854;42.692;23.364;2022-09-19T03:48:03;7.80;;;2.10;;
5662;SDS011;2854;42.692;23.364;2022-09-19T03:50:29;5.20;;;3.73;;
5662;SDS011;2854;42.692;23.364;2022-09-19T03:52:54;1.80;;;1.70;;
5662;SDS011;2854;42.692;23.364;2022-09-19T03:55:19;2.60;;;2.40;;
5662;SDS011;2854;42.692;23.364;2022-09-19T03:57:46;2.37;;;2.20;;
5662;SDS011;2854;42.692;23.364;2022-09-19T04:00:11;3.33;;;3.00;;
5662;SDS011;2854;42.692;23.364;2022-09-19T04:02:37;3.73;;;2.40;;
5662;SDS011;2854;42.692;23.364;2022-09-19T04:05:02;2.30;;;2.20;;
5662;SDS011;2854;42.692;23.364;2022-09-19T04:07:28;4.70;;;3.17;;
5662;SDS011;2854;42.692;23.364;2022-09-19T04:09:53;2.40;;;2.30;;
5662;SDS011;2854;42.692;23.364;2022-09-19T04:12:22;2.37;;;2.20;;
5662;SDS011;2854;42.692;23.364;2022-09-19T04:14:47;2.90;;;2.70;;
5662;SDS011;2854;42.692;23.364;2022-09-19T04:17:13;3.53;;;3.23;;
5662;SDS011;2854;42.692;23.364;2022-09-19T04:19:39;4.27;;;3.27;;
5662;SDS011;2854;42.692;23.364;2022-09-19T04:22:04;5.00;;;4.17;;
5662;SDS011;2854;42.692;23.364;2022-09-19T04:24:29;4.73;;;4.30;;
5662;SDS011;2854;42.692;23.364;2022-09-19T04:26:55;10.70;;;5.17;;
5662;SDS011;2854;42.692;23.364;2022-09-19T04:29:25;5.53;;;4.67;;
5662;SDS011;2854;42.692;23.364;2022-09-19T04:31:51;6.83;;;4.87;;
5662;SDS011;2854;42.692;23.364;2022-09-19T04:34:17;4.30;;;3.90;;
5662;SDS011;2854;42.692;23.364;2022-09-19T04:36:42;3.90;;;3.60;;
5662;SDS011;2854;42.692;23.364;2022-09-19T04:39:08;4.53;;;4.23;;
5662;SDS011;2854;42.692;23.364;2022-09-19T04:41:34;7.27;;;4.33;;
5662;SDS011;2854;42.692;23.364;2022-09-19T04:43:59;4.10;;;3.80;;
5662;SDS011;2854;42.692;23.364;2022-09-19T04:46:25;6.53;;;3.73;;
5662;SDS011;2854;42.692;23.364;2022-09-19T04:48:50;4.00;;;3.10;;
5662;SDS011;2854;42.692;23.364;2022-09-19T04:51:17;4.10;;;3.80;;
5662;SDS011;2854;42.692;23.364;2022-09-19T04:53:42;8.23;;;4.60;;
5662;SDS011;2854;42.692;23.364;2022-09-19T04:56:08;4.30;;;3.07;;
5662;SDS011;2854;42.692;23.364;2022-09-19T04:58:33;2.60;;;2.40;;
5662;SDS011;2854;42.692;23.364;2022-09-19T05:00:58;3.57;;;3.27;;
5662;SDS011;2854;42.692;23.364;2022-09-19T05:03:24;4.37;;;3.57;;
5662;SDS011;2854;42.692;23.364;2022-09-19T05:05:54;4.90;;;3.00;;
5662;SDS011;2854;42.692;23.364;2022-09-19T05:08:21;3.40;;;3.10;;
5662;SDS011;2854;42.692;23.364;2022-09-19T05:10:51;3.27;;;3.07;;
5662;SDS011;2854;42.692;23.364;2022-09-19T05:13:18;4.73;;;4.40;;
5662;SDS011;2854;42.692;23.364;2022-09-19T05:15:44;4.73;;;3.57;;
5662;SDS011;2854;42.692;23.364;2022-09-19T05:18:09;4.20;;;3.80;;
5662;SDS011;2854;42.692;23.364;2022-09-19T05:20:37;3.83;;;3.27;;
5662;SDS011;2854;42.692;23.364;2022-09-19T05:23:03;4.00;;;3.60;;
5662;SDS011;2854;42.692;23.364;2022-09-19T05:25:29;3.80;;;3.50;;
5662;SDS011;2854;42.692;23.364;2022-09-19T05:27:57;3.83;;;3.53;;
5662;SDS011;2854;42.692;23.364;2022-09-19T05:30:23;3.00;;;2.80;;
5662;SDS011;2854;42.692;23.364;2022-09-19T05:32:52;3.10;;;2.90;;
5662;SDS011;2854;42.692;23.364;2022-09-19T05:35:19;2.70;;;2.50;;
5662;SDS011;2854;42.692;23.364;2022-09-19T05:37:45;5.73;;;3.10;;
5662;SDS011;2854;42.692;23.364;2022-09-19T05:40:11;4.87;;;3.03;;
5662;SDS011;2854;42.692;23.364;2022-09-19T05:42:40;3.87;;;3.57;;
5662;SDS011;2854;42.692;23.364;2022-09-19T05:45:06;3.57;;;3.27;;
5662;SDS011;2854;42.692;23.364;2022-09-19T05:47:32;3.43;;;3.13;;
5662;SDS011;2854;42.692;23.364;2022-09-19T05:49:57;4.40;;;2.73;;
5662;SDS011;2854;42.692;23.364;2022-09-19T05:52:22;2.23;;;2.13;;
5662;SDS011;2854;42.692;23.364;2022-09-19T05:55:06;3.17;;;2.80;;
5662;SDS011;2854;42.692;23.364;2022-09-19T05:57:33;3.50;;;3.20;;
5662;SDS011;2854;42.692;23.364;2022-09-19T05:59:59;3.40;;;3.10;;
5662;SDS011;2854;42.692;23.364;2022-09-19T06:02:24;2.97;;;2.77;;
5662;SDS011;2854;42.692;23.364;2022-09-19T06:04:49;2.80;;;2.60;;
5662;SDS011;2854;42.692;23.364;2022-09-19T06:07:15;3.63;;;3.00;;
5662;SDS011;2854;42.692;23.364;2022-09-19T06:09:40;4.50;;;3.67;;
5662;SDS011;2854;42.692;23.364;2022-09-19T06:12:07;2.93;;;2.73;;
5662;SDS011;2854;42.692;23.364;2022-09-19T06:14:32;3.87;;;3.10;;
5662;SDS011;2854;42.692;23.364;2022-09-19T06:17:00;2.43;;;2.23;;
5662;SDS011;2854;42.692;23.364;2022-09-19T06:19:25;2.93;;;2.73;;
5662;SDS011;2854;42.692;23.364;2022-09-19T06:21:50;3.27;;;2.57;;
5662;SDS011;2854;42.692;23.364;2022-09-19T06:24:16;3.00;;;2.80;;
5662;SDS011;2854;42.692;23.364;2022-09-19T06:26:41;2.57;;;2.47;;
5662;SDS011;2854;42.692;23.364;2022-09-19T06:29:07;2.60;;;2.37;;
5662;SDS011;2854;42.692;23.364;2022-09-19T06:31:32;2.80;;;2.60;;
5662;SDS011;2854;42.692;23.364;2022-09-19T06:33:59;3.73;;;3.40;;
5662;SDS011;2854;42.692;23.364;2022-09-19T06:36:24;3.57;;;3.27;;
5662;SDS011;2854;42.692;23.364;2022-09-19T06:38:49;3.73;;;3.53;;
5662;SDS011;2854;42.692;23.364;2022-09-19T06:41:14;3.50;;;3.30;;
5662;SDS011;2854;42.692;23.364;2022-09-19T06:43:40;7.73;;;4.33;;
5662;SDS011;2854;42.692;23.364;2022-09-19T06:46:05;3.03;;;2.83;;
5662;SDS011;2854;42.692;23.364;2022-09-19T06:48:30;3.50;;;3.20;;
5662;SDS011;2854;42.692;23.364;2022-09-19T06:50:56;4.30;;;2.50;;
5662;SDS011;2854;42.692;23.364;2022-09-19T06:53:21;4.00;;;3.70;;
5662;SDS011;2854;42.692;23.364;2022-09-19T06:55:46;3.50;;;3.30;;
5662;SDS011;2854;42.692;23.364;2022-09-19T06:58:12;3.20;;;2.90;;
5662;SDS011;2854;42.692;23.364;2022-09-19T07:00:38;3.90;;;3.40;;
5662;SDS011;2854;42.692;23.364;2022-09-19T07:03:09;3.20;;;3.00;;
5662;SDS011;2854;42.692;23.364;2022-09-19T07:05:35;3.47;;;2.80;;
5662;SDS011;2854;42.692;23.364;2022-09-19T07:08:01;3.20;;;2.93;;
5662;SDS011;2854;42.692;23.364;2022-09-19T07:10:26;2.23;;;2.10;;
5662;SDS011;2854;42.692;23.364;2022-09-19T07:12:52;2.97;;;2.77;;
5662;SDS011;2854;42.692;23.364;2022-09-19T07:15:19;2.97;;;2.87;;
5662;SDS011;2854;42.692;23.364;2022-09-19T07:17:44;2.40;;;2.30;;
5662;SDS011;2854;42.692;23.364;2022-09-19T07:20:10;3.10;;;2.80;;
5662;SDS011;2854;42.692;23.364;2022-09-19T07:22:35;2.90;;;2.30;;
5662;SDS011;2854;42.692;23.364;2022-09-19T07:25:01;3.10;;;2.80;;
5662;SDS011;2854;42.692;23.364;2022-09-19T07:27:26;3.23;;;2.77;;
5662;SDS011;2854;42.692;23.364;2022-09-19T07:29:51;3.17;;;2.83;;
5662;SDS011;2854;42.692;23.364;2022-09-19T07:32:16;3.00;;;2.80;;
5662;SDS011;2854;42.692;23.364;2022-09-19T07:34:42;4.40;;;2.20;;
5662;SDS011;2854;42.692;23.364;2022-09-19T07:37:07;2.50;;;2.30;;
5662;SDS011;2854;42.692;23.364;2022-09-19T07:39:32;2.50;;;2.23;;
5662;SDS011;2854;42.692;23.364;2022-09-19T07:41:57;6.77;;;2.47;;
5662;SDS011;2854;42.692;23.364;2022-09-19T07:44:23;2.10;;;2.00;;
5662;SDS011;2854;42.692;23.364;2022-09-19T07:46:49;2.23;;;2.03;;
5662;SDS011;2854;42.692;23.364;2022-09-19T07:49:33;1.90;;;1.80;;
5662;SDS011;2854;42.692;23.364;2022-09-19T07:51:58;3.27;;;2.33;;
5662;SDS011;2854;42.692;23.364;2022-09-19T07:54:24;4.57;;;1.70;;
5662;SDS011;2854;42.692;23.364;2022-09-19T07:56:49;2.20;;;2.00;;
5662;SDS011;2854;42.692;23.364;2022-09-19T07:59:14;2.70;;;2.10;;
5662;SDS011;2854;42.692;23.364;2022-09-19T08:01:40;3.57;;;2.53;;
5662;SDS011;2854;42.692;23.364;2022-09-19T08:04:05;2.50;;;2.37;;
5662;SDS011;2854;42.692;23.364;2022-09-19T08:06:30;6.20;;;2.50;;
5662;SDS011;2854;42.692;23.364;2022-09-19T08:08:55;1.87;;;1.77;;
5662;SDS011;2854;42.692;23.364;2022-09-19T08:11:21;2.63;;;2.53;;
5662;SDS011;2854;42.692;23.364;2022-09-19T08:13:46;3.20;;;2.20;;
5662;SDS011;2854;42.692;23.364;2022-09-19T08:16:11;3.10;;;1.77;;
5662;SDS011;2854;42.692;23.364;2022-09-19T08:18:37;2.87;;;1.80;;
5662;SDS011;2854;42.692;23.364;2022-09-19T08:21:05;1.80;;;1.70;;
5662;SDS011;2854;42.692;23.364;2022-09-19T08:23:31;1.77;;;1.67;;
5662;SDS011;2854;42.692;23.364;2022-09-19T08:25:56;1.70;;;1.20;;
5662;SDS011;2854;42.692;23.364;2022-09-19T08:28:21;2.30;;;1.80;;
5662;SDS011;2854;42.692;23.364;2022-09-19T08:30:47;3.63;;;2.27;;
5662;SDS011;2854;42.692;23.364;2022-09-19T08:33:13;1.97;;;1.87;;
5662;SDS011;2854;42.692;23.364;2022-09-19T08:35:39;1.53;;;1.30;;
5662;SDS011;2854;42.692;23.364;2022-09-19T08:38:06;4.57;;;1.50;;
5662;SDS011;2854;42.692;23.364;2022-09-19T08:40:42;1.80;;;1.50;;
5662;SDS011;2854;42.692;23.364;2022-09-19T08:48:16;2.90;;;1.57;;
5662;SDS011;2854;42.692;23.364;2022-09-19T08:50:43;1.30;;;1.20;;
5662;SDS011;2854;42.692;23.364;2022-09-19T08:53:23;1.57;;;1.47;;
5662;SDS011;2854;42.692;23.364;2022-09-19T08:55:50;1.67;;;1.57;;
5662;SDS011;2854;42.692;23.364;2022-09-19T08:58:17;3.63;;;1.20;;
5662;SDS011;2854;42.692;23.364;2022-09-19T09:00:45;1.30;;;0.97;;
5662;SDS011;2854;42.692;23.364;2022-09-19T09:03:15;1.67;;;1.40;;
5662;SDS011;2854;42.692;23.364;2022-09-19T09:10:44;1.77;;;1.10;;
5662;SDS011;2854;42.692;23.364;2022-09-19T09:16:14;2.67;;;2.00;;
5662;SDS011;2854;42.692;23.364;2022-09-19T09:21:47;1.50;;;1.40;;
5662;SDS011;2854;42.692;23.364;2022-09-19T09:24:17;1.23;;;1.13;;
5662;SDS011;2854;42.692;23.364;2022-09-19T09:26:45;2.07;;;1.27;;
5662;SDS011;2854;42.692;23.364;2022-09-19T09:31:57;1.13;;;1.03;;
5662;SDS011;2854;42.692;23.364;2022-09-19T09:34:27;1.10;;;1.00;;
5662;SDS011;2854;42.692;23.364;2022-09-19T09:37:02;1.30;;;1.20;;
5662;SDS011;2854;42.692;23.364;2022-09-19T09:41:56;0.87;;;0.87;;
5662;SDS011;2854;42.692;23.364;2022-09-19T09:49:23;1.77;;;0.90;;
5662;SDS011;2854;42.692;23.364;2022-09-19T09:54:40;4.10;;;1.60;;
5662;SDS011;2854;42.692;23.364;2022-09-19T09:57:30;1.17;;;1.07;;
5662;SDS011;2854;42.692;23.364;2022-09-19T10:00:00;4.50;;;1.70;;
5662;SDS011;2854;42.692;23.364;2022-09-19T10:06:15;1.50;;;1.40;;
5662;SDS011;2854;42.692;23.364;2022-09-19T10:13:35;1.70;;;1.60;;
5662;SDS011;2854;42.692;23.364;2022-09-19T10:16:04;2.57;;;1.77;;
5662;SDS011;2854;42.692;23.364;2022-09-19T10:18:42;1.77;;;1.40;;
5662;SDS011;2854;42.692;23.364;2022-09-19T10:21:08;2.27;;;2.07;;
5662;SDS011;2854;42.692;23.364;2022-09-19T10:23:33;2.97;;;1.93;;
5662;SDS011;2854;42.692;23.364;2022-09-19T10:25:59;6.57;;;2.13;;
5662;SDS011;2854;42.692;23.364;2022-09-19T10:28:33;2.60;;;2.27;;
5662;SDS011;2854;42.692;23.364;2022-09-19T10:31:00;3.00;;;2.00;;
5662;SDS011;2854;42.692;23.364;2022-09-19T10:33:39;2.80;;;1.70;;
5662;SDS011;2854;42.692;23.364;2022-09-19T10:36:06;2.60;;;2.10;;
5662;SDS011;2854;42.692;23.364;2022-09-19T10:38:37;1.77;;;1.67;;
5662;SDS011;2854;42.692;23.364;2022-09-19T10:41:10;1.90;;;1.80;;
5662;SDS011;2854;42.692;23.364;2022-09-19T10:43:45;26.83;;;2.90;;
5662;SDS011;2854;42.692;23.364;2022-09-19T10:49:13;2.50;;;1.63;;
5662;SDS011;2854;42.692;23.364;2022-09-19T10:51:42;1.50;;;1.40;;
5662;SDS011;2854;42.692;23.364;2022-09-19T10:54:12;1.73;;;1.63;;
5662;SDS011;2854;42.692;23.364;2022-09-19T10:56:45;2.87;;;2.10;;
5662;SDS011;2854;42.692;23.364;2022-09-19T11:01:36;1.50;;;1.40;;
5662;SDS011;2854;42.692;23.364;2022-09-19T11:04:03;6.70;;;1.90;;
5662;SDS011;2854;42.692;23.364;2022-09-19T11:06:29;1.90;;;1.53;;
5662;SDS011;2854;42.692;23.364;2022-09-19T11:08:55;1.60;;;1.50;;
5662;SDS011;2854;42.692;23.364;2022-09-19T11:11:35;1.60;;;1.30;;
5662;SDS011;2854;42.692;23.364;2022-09-19T11:16:38;1.83;;;1.73;;
5662;SDS011;2854;42.692;23.364;2022-09-19T11:19:12;5.97;;;1.90;;
5662;SDS011;2854;42.692;23.364;2022-09-19T11:31:43;1.63;;;1.00;;
5662;SDS011;2854;42.692;23.364;2022-09-19T11:34:34;1.37;;;1.27;;
5662;SDS011;2854;42.692;23.364;2022-09-19T11:37:26;3.50;;;1.57;;
5662;SDS011;2854;42.692;23.364;2022-09-19T11:42:34;2.07;;;1.50;;
5662;SDS011;2854;42.692;23.364;2022-09-19T11:45:13;1.90;;;1.80;;
5662;SDS011;2854;42.692;23.364;2022-09-19T12:06:19;1.40;;;1.30;;
5662;SDS011;2854;42.692;23.364;2022-09-19T12:11:24;1.57;;;1.47;;
5662;SDS011;2854;42.692;23.364;2022-09-19T12:13:53;1.27;;;1.17;;
5662;SDS011;2854;42.692;23.364;2022-09-19T12:16:33;1.47;;;1.37;;
5662;SDS011;2854;42.692;23.364;2022-09-19T12:19:02;1.07;;;0.97;;
5662;SDS011;2854;42.692;23.364;2022-09-19T12:21:33;1.50;;;1.40;;
5662;SDS011;2854;42.692;23.364;2022-09-19T12:24:00;9.00;;;1.43;;
5662;SDS011;2854;42.692;23.364;2022-09-19T12:26:54;3.33;;;2.90;;
5662;SDS011;2854;42.692;23.364;2022-09-19T12:29:41;1.23;;;0.90;;
5662;SDS011;2854;42.692;23.364;2022-09-19T12:32:19;3.83;;;1.10;;
5662;SDS011;2854;42.692;23.364;2022-09-19T12:37:28;1.00;;;1.00;;
5662;SDS011;2854;42.692;23.364;2022-09-19T12:42:46;2.90;;;1.20;;
5662;SDS011;2854;42.692;23.364;2022-09-19T12:45:21;0.97;;;0.87;;
5662;SDS011;2854;42.692;23.364;2022-09-19T12:53:47;1.20;;;1.10;;
5662;SDS011;2854;42.692;23.364;2022-09-19T12:58:31;2.77;;;1.47;;
5662;SDS011;2854;42.692;23.364;2022-09-19T13:01:33;1.20;;;1.10;;
5662;SDS011;2854;42.692;23.364;2022-09-19T13:06:29;1.60;;;1.27;;
5662;SDS011;2854;42.692;23.364;2022-09-19T13:09:00;0.80;;;0.77;;
5662;SDS011;2854;42.692;23.364;2022-09-19T13:13:55;1.53;;;0.80;;
5662;SDS011;2854;42.692;23.364;2022-09-19T13:16:26;3.23;;;1.90;;
5662;SDS011;2854;42.692;23.364;2022-09-19T13:18:54;2.40;;;0.83;;
5662;SDS011;2854;42.692;23.364;2022-09-19T13:21:39;8.50;;;7.60;;
5662;SDS011;2854;42.692;23.364;2022-09-19T13:24:25;4.57;;;2.63;;
5662;SDS011;2854;42.692;23.364;2022-09-19T13:26:53;2.27;;;2.17;;
5662;SDS011;2854;42.692;23.364;2022-09-19T13:39:54;2.90;;;1.13;;
5662;SDS011;2854;42.692;23.364;2022-09-19T13:42:32;2.80;;;1.47;;
5662;SDS011;2854;42.692;23.364;2022-09-19T13:45:02;0.90;;;0.70;;
5662;SDS011;2854;42.692;23.364;2022-09-19T13:47:31;1.33;;;0.80;;
5662;SDS011;2854;42.692;23.364;2022-09-19T13:50:10;1.57;;;0.90;;
5662;SDS011;2854;42.692;23.364;2022-09-19T13:52:50;1.00;;;0.87;;
5662;SDS011;2854;42.692;23.364;2022-09-19T13:55:30;2.20;;;1.10;;
5662;SDS011;2854;42.692;23.364;2022-09-19T14:00:42;1.30;;;0.80;;
5662;SDS011;2854;42.692;23.364;2022-09-19T14:05:45;0.90;;;0.80;;
5662;SDS011;2854;42.692;23.364;2022-09-19T14:08:29;0.80;;;0.80;;
5662;SDS011;2854;42.692;23.364;2022-09-19T14:10:55;9.97;;;1.90;;
5662;SDS011;2854;42.692;23.364;2022-09-19T14:23:19;0.97;;;0.70;;
5662;SDS011;2854;42.692;23.364;2022-09-19T14:25:56;2.67;;;0.70;;
5662;SDS011;2854;42.692;23.364;2022-09-19T14:35:45;0.70;;;0.53;;
5662;SDS011;2854;42.692;23.364;2022-09-19T14:43:26;1.13;;;0.80;;
5662;SDS011;2854;42.692;23.364;2022-09-19T14:48:41;1.10;;;1.00;;
5662;SDS011;2854;42.692;23.364;2022-09-19T14:53:52;1.37;;;1.10;;
5662;SDS011;2854;42.692;23.364;2022-09-19T14:56:21;1.30;;;0.80;;
5662;SDS011;2854;42.692;23.364;2022-09-19T14:58:50;3.97;;;1.00;;
5662;SDS011;2854;42.692;23.364;2022-09-19T15:01:18;0.80;;;0.70;;
5662;SDS011;2854;42.692;23.364;2022-09-19T15:04:27;0.93;;;0.70;;
5662;SDS011;2854;42.692;23.364;2022-09-19T15:06:46;1.00;;;0.70;;
5662;SDS011;2854;42.692;23.364;2022-09-19T15:09:20;0.73;;;0.70;;
5662;SDS011;2854;42.692;23.364;2022-09-19T15:11:49;0.77;;;0.77;;
5662;SDS011;2854;42.692;23.364;2022-09-19T15:14:16;0.60;;;0.47;;
5662;SDS011;2854;42.692;23.364;2022-09-19T15:16:42;0.70;;;0.50;;
5662;SDS011;2854;42.692;23.364;2022-09-19T15:19:08;2.30;;;1.13;;
5662;SDS011;2854;42.692;23.364;2022-09-19T15:21:33;0.63;;;0.50;;
5662;SDS011;2854;42.692;23.364;2022-09-19T15:24:01;0.90;;;0.70;;
5662;SDS011;2854;42.692;23.364;2022-09-19T15:26:27;0.80;;;0.80;;
5662;SDS011;2854;42.692;23.364;2022-09-19T15:28:54;0.70;;;0.70;;
5662;SDS011;2854;42.692;23.364;2022-09-19T15:31:20;1.67;;;1.20;;
5662;SDS011;2854;42.692;23.364;2022-09-19T15:33:47;0.90;;;0.80;;
5662;SDS011;2854;42.692;23.364;2022-09-19T15:36:16;0.67;;;0.60;;
5662;SDS011;2854;42.692;23.364;2022-09-19T15:38:47;1.87;;;0.80;;
5662;SDS011;2854;42.692;23.364;2022-09-19T15:41:14;0.60;;;0.50;;
5662;SDS011;2854;42.692;23.364;2022-09-19T15:43:41;0.80;;;0.60;;
5662;SDS011;2854;42.692;23.364;2022-09-19T15:48:55;0.77;;;0.70;;
5662;SDS011;2854;42.692;23.364;2022-09-19T15:51:31;0.80;;;0.80;;
5662;SDS011;2854;42.692;23.364;2022-09-19T15:53:58;1.50;;;0.90;;
5662;SDS011;2854;42.692;23.364;2022-09-19T15:56:23;1.13;;;1.03;;
5662;SDS011;2854;42.692;23.364;2022-09-19T15:58:55;0.90;;;0.80;;
5662;SDS011;2854;42.692;23.364;2022-09-19T16:01:22;1.93;;;0.60;;
5662;SDS011;2854;42.692;23.364;2022-09-19T16:09:17;0.70;;;0.60;;
5662;SDS011;2854;42.692;23.364;2022-09-19T16:11:43;0.80;;;0.73;;
5662;SDS011;2854;42.692;23.364;2022-09-19T16:16:40;0.80;;;0.60;;
5662;SDS011;2854;42.692;23.364;2022-09-19T16:19:07;1.90;;;1.10;;
5662;SDS011;2854;42.692;23.364;2022-09-19T16:21:43;0.90;;;0.80;;
5662;SDS011;2854;42.692;23.364;2022-09-19T16:24:09;0.80;;;0.70;;
5662;SDS011;2854;42.692;23.364;2022-09-19T16:26:37;1.23;;;0.80;;
5662;SDS011;2854;42.692;23.364;2022-09-19T16:29:04;1.57;;;1.30;;
5662;SDS011;2854;42.692;23.364;2022-09-19T16:31:31;1.00;;;0.90;;
5662;SDS011;2854;42.692;23.364;2022-09-19T16:36:29;1.00;;;0.90;;
5662;SDS011;2854;42.692;23.364;2022-09-19T16:41:25;1.93;;;1.10;;
5662;SDS011;2854;42.692;23.364;2022-09-19T16:46:25;1.20;;;1.10;;
5662;SDS011;2854;42.692;23.364;2022-09-19T16:48:50;1.70;;;1.60;;
5662;SDS011;2854;42.692;23.364;2022-09-19T16:51:15;3.73;;;1.70;;
5662;SDS011;2854;42.692;23.364;2022-09-19T16:53:43;1.30;;;1.20;;
5662;SDS011;2854;42.692;23.364;2022-09-19T16:56:08;1.60;;;1.40;;
5662;SDS011;2854;42.692;23.364;2022-09-19T16:58:34;1.17;;;1.00;;
5662;SDS011;2854;42.692;23.364;2022-09-19T17:01:01;2.60;;;1.20;;
5662;SDS011;2854;42.692;23.364;2022-09-19T17:03:27;1.73;;;0.97;;
5662;SDS011;2854;42.692;23.364;2022-09-19T17:05:52;1.20;;;1.10;;
5662;SDS011;2854;42.692;23.364;2022-09-19T17:08:19;1.53;;;1.33;;
5662;SDS011;2854;42.692;23.364;2022-09-19T17:10:44;1.97;;;1.50;;
5662;SDS011;2854;42.692;23.364;2022-09-19T17:13:10;1.20;;;1.10;;
5662;SDS011;2854;42.692;23.364;2022-09-19T17:18:02;1.57;;;0.97;;
5662;SDS011;2854;42.692;23.364;2022-09-19T17:20:28;2.00;;;1.80;;
5662;SDS011;2854;42.692;23.364;2022-09-19T17:22:53;2.40;;;1.60;;
5662;SDS011;2854;42.692;23.364;2022-09-19T17:25:22;1.40;;;1.30;;
5662;SDS011;2854;42.692;23.364;2022-09-19T17:27:50;1.63;;;1.43;;
5662;SDS011;2854;42.692;23.364;2022-09-19T17:30:15;4.00;;;1.70;;
5662;SDS011;2854;42.692;23.364;2022-09-19T17:32:41;4.80;;;3.40;;
5662;SDS011;2854;42.692;23.364;2022-09-19T17:35:12;2.00;;;1.50;;
5662;SDS011;2854;42.692;23.364;2022-09-19T17:37:38;3.33;;;1.80;;
5662;SDS011;2854;42.692;23.364;2022-09-19T17:40:03;2.17;;;1.97;;
5662;SDS011;2854;42.692;23.364;2022-09-19T17:42:29;6.20;;;1.90;;
5662;SDS011;2854;42.692;23.364;2022-09-19T17:44:55;1.83;;;1.70;;
5662;SDS011;2854;42.692;23.364;2022-09-19T17:47:22;3.03;;;2.10;;
5662;SDS011;2854;42.692;23.364;2022-09-19T17:49:47;3.27;;;1.97;;
5662;SDS011;2854;42.692;23.364;2022-09-19T17:52:13;6.10;;;1.97;;
5662;SDS011;2854;42.692;23.364;2022-09-19T17:54:38;1.97;;;1.60;;
5662;SDS011;2854;42.692;23.364;2022-09-19T17:57:04;2.50;;;1.70;;
5662;SDS011;2854;42.692;23.364;2022-09-19T17:59:29;1.73;;;1.63;;
5662;SDS011;2854;42.692;23.364;2022-09-19T18:01:54;2.77;;;2.50;;
5662;SDS011;2854;42.692;23.364;2022-09-19T18:04:38;2.50;;;2.30;;
5662;SDS011;2854;42.692;23.364;2022-09-19T18:07:04;3.03;;;2.03;;
5662;SDS011;2854;42.692;23.364;2022-09-19T18:09:29;1.50;;;1.40;;
5662;SDS011;2854;42.692;23.364;2022-09-19T18:11:54;1.80;;;1.33;;
5662;SDS011;2854;42.692;23.364;2022-09-19T18:14:20;1.53;;;1.43;;
5662;SDS011;2854;42.692;23.364;2022-09-19T18:16:46;3.77;;;1.33;;
5662;SDS011;2854;42.692;23.364;2022-09-19T18:19:12;1.73;;;1.20;;
5662;SDS011;2854;42.692;23.364;2022-09-19T18:21:37;1.43;;;1.30;;
5662;SDS011;2854;42.692;23.364;2022-09-19T18:24:06;1.13;;;0.80;;
5662;SDS011;2854;42.692;23.364;2022-09-19T18:26:32;1.53;;;0.80;;
5662;SDS011;2854;42.692;23.364;2022-09-19T18:28:58;1.20;;;1.10;;
5662;SDS011;2854;42.692;23.364;2022-09-19T18:31:23;2.83;;;1.27;;